Time;durP1;ratioP1;P1;durP2;ratioP2;P2;SDS_P1;SDS_P2;PMS_P1;PMS_P2;Temp;Humidity;BMP_temperature;BMP_pressure;BME280_temperature;BME280_humidity;BME280_pressure;Samples;Min_cycle;Max_cycle;Signal;HPM_P1;HPM_P2
2019/10/01 00:00:45;;;;;;;2.6;1.1;;;;;;;11.85;81.25488;936.4055;;;;
2019/10/01 00:03:13;;;;;;;2.3;1.1;;;;;;;11.86;80.83203;936.4709;;;;
2019/10/01 00:05:42;;;;;;;2.4;0.9;;;;;;;11.92;80.36328;936.4438;;;;
2019/10/01 00:08:14;;;;;;;2.7;1.2;;;;;;;11.76;80.91504;936.4247;;;;
2019/10/01 00:10:45;;;;;;;4.2;1.5;;;;;;;11.73;81.18652;936.368;;;;
2019/10/01 00:13:18;;;;;;;3.5;1.1;;;;;;;11.76;80.93945;936.3361;;;;
2019/10/01 00:15:47;;;;;;;3.3;1.1;;;;;;;11.75;81.00684;936.332;;;;
2019/10/01 00:18:15;;;;;;;7;2.5;;;;;;;11.7;81.17969;936.2897;;;;
2019/10/01 00:20:54;;;;;;;3;1.2;;;;;;;11.74;81.09473;936.2355;;;;
2019/10/01 00:23:26;;;;;;;4.4;1.4;;;;;;;11.63;81.7959;936.2417;;;;
2019/10/01 00:25:56;;;;;;;3.2;1.2;;;;;;;11.64;81.59375;936.225;;;;
2019/10/01 00:28:33;;;;;;;5.4;1.4;;;;;;;11.69;81.625;936.1669;;;;
2019/10/01 00:31:06;;;;;;;4.6;1.7;;;;;;;11.75;81.31641;936.1606;;;;
2019/10/01 00:33:35;;;;;;;3.4;1.4;;;;;;;11.81;80.57031;936.1953;;;;
2019/10/01 00:36:00;;;;;;;2.7;1.2;;;;;;;11.79;80.56738;936.1889;;;;
2019/10/01 00:38:30;;;;;;;2.5;1.1;;;;;;;11.61;81.11719;936.1306;;;;
2019/10/01 00:40:56;;;;;;;3;1.3;;;;;;;11.24;83.00488;936.1923;;;;
2019/10/01 00:43:28;;;;;;;4.4;1.3;;;;;;;11.12;84.05566;936.0784;;;;
2019/10/01 00:45:51;;;;;;;2.8;1.3;;;;;;;11.09;84.1875;936.1683;;;;
2019/10/01 00:48:26;;;;;;;5.3;1.3;;;;;;;11.14;83.64941;936.1351;;;;
2019/10/01 00:51:00;;;;;;;3.8;1.3;;;;;;;11.22;83.01172;936.0656;;;;
2019/10/01 00:53:34;;;;;;;2.8;1.3;;;;;;;11.4;82.24512;935.9217;;;;
2019/10/01 00:55:59;;;;;;;3.1;1.2;;;;;;;11.43;81.9873;936.0018;;;;
2019/10/01 00:58:31;;;;;;;4.5;1.4;;;;;;;11.52;81.44531;936.0115;;;;
2019/10/01 01:01:06;;;;;;;3;1.3;;;;;;;11.52;81.18262;936.0467;;;;
2019/10/01 01:03:38;;;;;;;3.5;1.4;;;;;;;11.17;82.94434;935.9853;;;;
2019/10/01 01:06:07;;;;;;;2.1;1.3;;;;;;;11.28;82.6582;935.8769;;;;
2019/10/01 01:08:48;;;;;;;4.3;1.3;;;;;;;11.35;82.15527;935.8555;;;;
2019/10/01 01:11:20;;;;;;;8.7;1.3;;;;;;;11.41;81.43457;935.897;;;;
2019/10/01 01:13:52;;;;;;;4.7;1.3;;;;;;;11.07;83.30273;935.9182;;;;
2019/10/01 01:16:26;;;;;;;2.8;1.1;;;;;;;11.08;83.4873;935.8719;;;;
2019/10/01 01:18:49;;;;;;;7.2;1.4;;;;;;;11.29;82.3623;935.8059;;;;
2019/10/01 01:21:16;;;;;;;3.2;1.4;;;;;;;11.35;81.83496;935.7399;;;;
2019/10/01 01:23:49;;;;;;;4.1;1.2;;;;;;;11.38;81.50781;935.7344;;;;
2019/10/01 01:26:19;;;;;;;3.1;1.2;;;;;;;11.33;81.69238;935.7892;;;;
2019/10/01 01:28:46;;;;;;;3.6;1.5;;;;;;;11.4;81.12402;935.7814;;;;
2019/10/01 01:32:49;;;;;;;3.7;1.3;;;;;;;11.36;80.94629;935.8873;;;;
2019/10/01 01:35:12;;;;;;;3.8;1.5;;;;;;;11.3;81.51758;935.7892;;;;
2019/10/01 01:37:41;;;;;;;3.2;1.2;;;;;;;11.23;81.48242;935.7971;;;;
2019/10/01 01:40:18;;;;;;;3.8;1.3;;;;;;;11.27;81.3291;935.7381;;;;
2019/10/01 01:42:40;;;;;;;4.3;1.4;;;;;;;11.28;81.2168;935.7302;;;;
2019/10/01 01:45:14;;;;;;;3.3;1.3;;;;;;;11.09;81.92383;935.6878;;;;
2019/10/01 01:47:53;;;;;;;3.3;1.4;;;;;;;10.77;83.71484;935.7203;;;;
2019/10/01 01:50:17;;;;;;;3.8;1.4;;;;;;;10.75;83.50586;935.6932;;;;
2019/10/01 01:52:45;;;;;;;5.3;1.4;;;;;;;10.87;82.66992;935.6055;;;;
2019/10/01 01:55:22;;;;;;;2.1;1.3;;;;;;;10.94;82.07813;935.617;;;;
2019/10/01 01:57:46;;;;;;;4.5;1.4;;;;;;;10.98;82.31543;935.5391;;;;
2019/10/01 02:00:18;;;;;;;5.2;1.5;;;;;;;11.09;81.68359;935.4695;;;;
2019/10/01 02:02:51;;;;;;;3.8;1.3;;;;;;;11.04;81.85645;935.5204;;;;
2019/10/01 02:05:26;;;;;;;3.3;1.2;;;;;;;10.88;82.58008;935.4655;;;;
2019/10/01 02:08:00;;;;;;;4;1.6;;;;;;;10.61;83.73926;935.5681;;;;
2019/10/01 02:10:34;;;;;;;5;1.7;;;;;;;10.33;85.52246;935.4422;;;;
2019/10/01 02:13:05;;;;;;;3.7;1.4;;;;;;;10.3;85.76758;935.4182;;;;
2019/10/01 02:15:32;;;;;;;3.3;1.4;;;;;;;10.29;85.65234;935.4594;;;;
2019/10/01 02:18:00;;;;;;;3.9;1.6;;;;;;;10.5;84.74512;935.4489;;;;
2019/10/01 02:20:39;;;;;;;5.9;1.4;;;;;;;10.42;85.45996;935.3123;;;;
2019/10/01 02:23:00;;;;;;;4;1.5;;;;;;;10.56;84.33496;935.2764;;;;
2019/10/01 02:25:38;;;;;;;3.2;1.3;;;;;;;10.22;85.39941;935.3437;;;;
2019/10/01 02:28:06;;;;;;;4.3;1.3;;;;;;;10.4;84.70313;935.3127;;;;
2019/10/01 02:31:16;;;;;;;2.9;1.4;;;;;;;10.29;84.89844;935.2852;;;;
2019/10/01 02:33:39;;;;;;;8.2;2;;;;;;;10.05;86.43652;935.1646;;;;
2019/10/01 02:36:25;;;;;;;7.5;2.4;;;;;;;10.03;86.50098;935.1708;;;;
2019/10/01 02:38:41;;;;;;;5.6;2.4;;;;;;;10.03;86.27246;935.1756;;;;
2019/10/01 02:41:08;;;;;;;7.6;2.8;;;;;;;9.79;87.40039;935.1606;;;;
2019/10/01 02:43:37;;;;;;;4.4;2.1;;;;;;;9.8;87.41309;935.1075;;;;
2019/10/01 02:46:08;;;;;;;7;2.3;;;;;;;9.87;87.18848;935.0789;;;;
2019/10/01 02:48:31;;;;;;;4.8;2.6;;;;;;;9.87;87.17676;935.0407;;;;
2019/10/01 02:51:05;;;;;;;4.1;1.9;;;;;;;9.88;87.27051;935.0248;;;;
2019/10/01 02:53:34;;;;;;;4.5;1.7;;;;;;;10.14;86.03223;935.0211;;;;
2019/10/01 02:56:10;;;;;;;2.9;1.8;;;;;;;10.35;84.64844;934.9997;;;;
2019/10/01 02:58:32;;;;;;;4.2;1.6;;;;;;;10.13;85.74707;935.0538;;;;
2019/10/01 03:00:58;;;;;;;2.9;1.5;;;;;;;10.24;85.15039;935.0255;;;;
2019/10/01 03:03:31;;;;;;;3.1;1.5;;;;;;;10.31;84.62891;934.9136;;;;
2019/10/01 03:05:52;;;;;;;4.1;1.5;;;;;;;10.36;84.04395;934.9186;;;;
2019/10/01 03:08:17;;;;;;;4.2;1.7;;;;;;;10.33;84.16406;934.9495;;;;
2019/10/01 03:10:54;;;;;;;3.3;1.4;;;;;;;10.19;84.42285;934.9411;;;;
2019/10/01 03:13:28;;;;;;;4.5;1.8;;;;;;;10.05;84.85059;934.9984;;;;
2019/10/01 03:15:52;;;;;;;5.4;1.7;;;;;;;10.02;84.8457;934.9584;;;;
2019/10/01 03:18:26;;;;;;;4.8;1.7;;;;;;;9.81;85.66895;934.8785;;;;
2019/10/01 03:20:57;;;;;;;3.3;1.5;;;;;;;9.82;85.72949;934.875;;;;
2019/10/01 03:23:44;;;;;;;4.8;1.8;;;;;;;9.82;85.76367;934.8455;;;;
2019/10/01 03:25:56;;;;;;;2.6;1.6;;;;;;;10;84.70508;934.8466;;;;
2019/10/01 03:28:23;;;;;;;4.4;1.6;;;;;;;9.93;84.9873;934.8533;;;;
2019/10/01 03:31:03;;;;;;;2.8;1.5;;;;;;;9.98;84.47363;934.79;;;;
2019/10/01 03:33:36;;;;;;;2.3;1.6;;;;;;;9.84;85.12891;934.7709;;;;
2019/10/01 03:36:04;;;;;;;2.7;1.7;;;;;;;9.55;86.67871;934.7587;;;;
2019/10/01 03:38:40;;;;;;;3;1.7;;;;;;;9.51;86.94434;934.6973;;;;
2019/10/01 03:41:11;;;;;;;3.7;1.5;;;;;;;9.7;86.44727;934.6696;;;;
2019/10/01 03:43:40;;;;;;;2.7;1.4;;;;;;;9.88;85.69531;934.709;;;;
2019/10/01 03:46:06;;;;;;;4;1.6;;;;;;;9.88;84.93164;934.7178;;;;
2019/10/01 03:48:39;;;;;;;5.2;2.9;;;;;;;9.53;86.17383;934.6625;;;;
2019/10/01 03:51:03;;;;;;;6.4;2.4;;;;;;;9.47;86.86719;934.6628;;;;
2019/10/01 03:53:37;;;;;;;5.8;2.5;;;;;;;9.45;88.07031;934.6142;;;;
2019/10/01 03:56:09;;;;;;;4.1;2;;;;;;;9.59;87.88379;934.5549;;;;
2019/10/01 03:58:37;;;;;;;4.3;1.8;;;;;;;9.66;87.15625;934.5809;;;;
2019/10/01 04:02:44;;;;;;;4.5;1.8;;;;;;;9.42;87.88281;934.5829;;;;
2019/10/01 04:05:20;;;;;;;4.2;1.9;;;;;;;9.63;87.90234;934.5887;;;;
2019/10/01 04:08:11;;;;;;;3.3;1.6;;;;;;;9.88;86.02734;934.5636;;;;
2019/10/01 04:10:46;;;;;;;3.9;1.8;;;;;;;9.47;87.10645;934.55;;;;
2019/10/01 04:13:16;;;;;;;3.5;2.4;;;;;;;9.36;87.52832;934.5513;;;;
2019/10/01 04:18:19;;;;;;;4.6;2.6;;;;;;;9.52;86.58203;934.5209;;;;
2019/10/01 04:20:51;;;;;;;5;3.1;;;;;;;9.53;86.27637;934.5027;;;;
2019/10/01 04:23:25;;;;;;;6.6;2.4;;;;;;;9.54;86.33496;934.5306;;;;
2019/10/01 04:25:52;;;;;;;4.4;2.7;;;;;;;9.55;86.4502;934.5236;;;;
2019/10/01 04:28:23;;;;;;;4.7;1.8;;;;;;;9.5;86.23633;934.4994;;;;
2019/10/01 04:30:59;;;;;;;5.1;1.8;;;;;;;9.66;85.72168;934.5237;;;;
2019/10/01 04:33:32;;;;;;;6.3;2.7;;;;;;;9.47;86.33203;934.465;;;;
2019/10/01 04:36:11;;;;;;;3.4;2.2;;;;;;;9.45;86.49902;934.4394;;;;
2019/10/01 04:38:35;;;;;;;4.6;2.3;;;;;;;9.44;86.65625;934.4353;;;;
2019/10/01 04:41:06;;;;;;;8.1;4.8;;;;;;;9.43;86.86035;934.3915;;;;
2019/10/01 04:43:31;;;;;;;7.9;4;;;;;;;9.73;85.31348;934.4352;;;;
2019/10/01 04:46:00;;;;;;;3.5;2.1;;;;;;;9.71;85.11426;934.454;;;;
2019/10/01 04:48:28;;;;;;;4.7;2;;;;;;;9.74;84.80176;934.4344;;;;
2019/10/01 04:50:59;;;;;;;4;1.7;;;;;;;9.66;85.24219;934.4093;;;;
2019/10/01 04:53:33;;;;;;;3.8;1.8;;;;;;;9.44;86.42871;934.3257;;;;
2019/10/01 04:55:57;;;;;;;8.1;3.9;;;;;;;9.4;86.44238;934.3878;;;;
2019/10/01 04:58:27;;;;;;;7.2;3.3;;;;;;;9.51;85.93066;934.3214;;;;
2019/10/01 05:01:04;;;;;;;8.9;3.7;;;;;;;9.3;86.61621;934.3862;;;;
2019/10/01 05:03:29;;;;;;;7.6;2.9;;;;;;;9.17;87.3877;934.3254;;;;
2019/10/01 05:06:18;;;;;;;8.4;2.4;;;;;;;9.18;88.06055;934.3564;;;;
2019/10/01 05:08:38;;;;;;;5.5;2.3;;;;;;;9.28;87.0791;934.236;;;;
2019/10/01 05:11:01;;;;;;;6.2;2.1;;;;;;;9.43;86.1084;934.2668;;;;
2019/10/01 05:13:36;;;;;;;4.5;2.2;;;;;;;9.32;86.4375;934.2219;;;;
2019/10/01 05:16:08;;;;;;;6.6;2.1;;;;;;;9.3;86.42285;934.3005;;;;
2019/10/01 05:18:33;;;;;;;4.8;2;;;;;;;9.47;85.81934;934.2488;;;;
2019/10/01 05:21:03;;;;;;;6.1;1.8;;;;;;;9.4;85.63379;934.2734;;;;
2019/10/01 05:23:34;;;;;;;7.9;2.1;;;;;;;9.23;86.66016;934.2101;;;;
2019/10/01 05:26:04;;;;;;;7.9;2.2;;;;;;;9.47;85.52344;934.1558;;;;
2019/10/01 05:28:29;;;;;;;5.6;1.9;;;;;;;9.53;85.0459;934.1085;;;;
2019/10/01 05:31:00;;;;;;;5.1;1.8;;;;;;;9.64;84.75977;934.0825;;;;
2019/10/01 05:33:25;;;;;;;7.7;2;;;;;;;9.75;83.98535;934.0402;;;;
2019/10/01 05:35:52;;;;;;;6.1;2;;;;;;;9.75;84.09668;934.0306;;;;
2019/10/01 05:38:23;;;;;;;5.8;2;;;;;;;9.39;85.87109;934.0945;;;;
2019/10/01 05:40:47;;;;;;;4.3;2.4;;;;;;;9.34;86.7168;934.0489;;;;
2019/10/01 05:43:26;;;;;;;5.8;2.2;;;;;;;9.3;86.79883;933.9858;;;;
2019/10/01 05:45:50;;;;;;;6;2.1;;;;;;;9.37;86.21094;933.8878;;;;
2019/10/01 05:48:17;;;;;;;4.2;2.3;;;;;;;9.43;85.99609;933.8791;;;;
2019/10/01 05:51:12;;;;;;;7;3.5;;;;;;;9.37;86.65137;933.9395;;;;
2019/10/01 05:54:11;;;;;;;10.3;4.1;;;;;;;9.58;86.18457;933.9205;;;;
2019/10/01 05:59:08;;;;;;;8.1;2.1;;;;;;;9.99;84.1123;933.908;;;;
2019/10/01 06:01:44;;;;;;;4.7;2;;;;;;;10.09;83.77637;933.8809;;;;
2019/10/01 06:04:04;;;;;;;4.1;1.9;;;;;;;10.09;83.84473;933.8904;;;;
2019/10/01 06:06:38;;;;;;;5;1.9;;;;;;;10.24;83.29297;933.8614;;;;
2019/10/01 06:09:14;;;;;;;5.3;2.1;;;;;;;10.22;83.46973;933.8621;;;;
2019/10/01 06:12:11;;;;;;;6.7;2.2;;;;;;;10.2;83.55762;933.8606;;;;
2019/10/01 06:14:17;;;;;;;4.6;1.9;;;;;;;10.2;84.00293;933.7587;;;;
2019/10/01 06:17:07;;;;;;;3.8;1.8;;;;;;;10.17;84.47656;933.7858;;;;
2019/10/01 06:19:18;;;;;;;6.5;2;;;;;;;10.28;84.49805;933.7079;;;;
2019/10/01 06:21:42;;;;;;;6.4;1.8;;;;;;;;;;;;;
2019/10/01 06:24:07;;;;;;;7.7;2.1;;;;;;;;;;;;;
2019/10/01 06:26:36;;;;;;;5.4;2.3;;;;;;;;;;;;;
2019/10/01 06:28:59;;;;;;;4.7;1.8;;;;;;;;;;;;;
2019/10/01 06:31:25;;;;;;;3.8;1.6;;;;;;;;;;;;;
2019/10/01 06:33:52;;;;;;;5.1;1.9;;;;;;;;;;;;;
2019/10/01 06:36:18;;;;;;;3.8;1.8;;;;;;;;;;;;;
2019/10/01 06:38:45;;;;;;;7.2;2;;;;;;;;;;;;;
2019/10/01 06:41:05;;;;;;;7.7;1.7;;;;;;;;;;;;;
2019/10/01 06:43:30;;;;;;;4.4;1.5;;;;;;;;;;;;;
2019/10/01 06:45:57;;;;;;;5.7;1.8;;;;;;;;;;;;;
2019/10/01 06:48:21;;;;;;;5.6;1.7;;;;;;;;;;;;;
2019/10/01 06:50:48;;;;;;;3.2;1.5;;;;;;;;;;;;;
2019/10/01 06:53:17;;;;;;;4.6;1.4;;;;;;;;;;;;;
2019/10/01 06:55:37;;;;;;;7.4;1.6;;;;;;;;;;;;;
2019/10/01 06:58:14;;;;;;;6;2;;;;;;;;;;;;;
2019/10/01 07:00:40;;;;;;;4.2;1.7;;;;;;;;;;;;;
2019/10/01 07:03:10;;;;;;;8.4;2;;;;;;;;;;;;;
2019/10/01 07:05:31;;;;;;;5.6;1.8;;;;;;;;;;;;;
2019/10/01 07:07:56;;;;;;;3.9;1.6;;;;;;;;;;;;;
2019/10/01 07:10:22;;;;;;;5.3;1.7;;;;;;;;;;;;;
2019/10/01 07:13:12;;;;;;;3.4;2;;;;;;;;;;;;;
2019/10/01 07:15:24;;;;;;;6.2;2.1;;;;;;;;;;;;;
2019/10/01 07:17:49;;;;;;;4.7;1.7;;;;;;;;;;;;;
2019/10/01 07:20:16;;;;;;;4.7;1.6;;;;;;;;;;;;;
2019/10/01 07:22:42;;;;;;;4.6;1.5;;;;;;;;;;;;;
2019/10/01 07:25:07;;;;;;;3.5;1.3;;;;;;;;;;;;;
2019/10/01 07:27:38;;;;;;;10.1;1.2;;;;;;;;;;;;;
2019/10/01 07:30:00;;;;;;;3.8;1.3;;;;;;;;;;;;;
2019/10/01 07:32:23;;;;;;;4;1.1;;;;;;;;;;;;;
2019/10/01 07:34:51;;;;;;;1.6;1.1;;;;;;;;;;;;;
2019/10/01 07:37:16;;;;;;;6.3;1.3;;;;;;;;;;;;;
2019/10/01 07:39:39;;;;;;;3.3;1.2;;;;;;;;;;;;;
2019/10/01 07:42:04;;;;;;;3.5;1.2;;;;;;;;;;;;;
2019/10/01 07:44:29;;;;;;;1.6;0.9;;;;;;;;;;;;;
2019/10/01 07:46:55;;;;;;;3.6;0.9;;;;;;;;;;;;;
2019/10/01 07:49:21;;;;;;;1.5;0.9;;;;;;;;;;;;;
2019/10/01 07:51:47;;;;;;;2.5;0.9;;;;;;;;;;;;;
2019/10/01 07:54:17;;;;;;;2.7;0.9;;;;;;;;;;;;;
2019/10/01 07:59:03;;;;;;;1.2;0.7;;;;;;;;;;;;;
2019/10/01 08:01:28;;;;;;;1.8;0.8;;;;;;;;;;;;;
2019/10/01 08:03:57;;;;;;;1.8;0.7;;;;;;;;;;;;;
2019/10/01 08:06:19;;;;;;;3.5;1;;;;;;;;;;;;;
2019/10/01 08:08:44;;;;;;;1.6;0.7;;;;;;;;;;;;;
2019/10/01 08:11:10;;;;;;;1.4;0.7;;;;;;;;;;;;;
2019/10/01 08:13:36;;;;;;;1.3;0.7;;;;;;;;;;;;;
2019/10/01 08:16:01;;;;;;;2;0.7;;;;;;;;;;;;;
2019/10/01 08:18:25;;;;;;;1.9;0.8;;;;;;;;;;;;;
2019/10/01 08:20:54;;;;;;;2.2;0.7;;;;;;;;;;;;;
2019/10/01 08:23:21;;;;;;;2.2;0.8;;;;;;;;;;;;;
2019/10/01 08:25:47;;;;;;;1.6;0.6;;;;;;;;;;;;;
2019/10/01 08:28:15;;;;;;;2.4;0.8;;;;;;;;;;;;;
2019/10/01 08:30:38;;;;;;;3.5;0.9;;;;;;;;;;;;;
2019/10/01 08:33:04;;;;;;;3.3;0.9;;;;;;;;;;;;;
2019/10/01 08:35:29;;;;;;;1.6;0.8;;;;;;;;;;;;;
2019/10/01 08:37:54;;;;;;;2.8;1;;;;;;;;;;;;;
2019/10/01 08:40:24;;;;;;;1.4;0.8;;;;;;;;;;;;;
2019/10/01 08:42:48;;;;;;;2.2;1;;;;;;;;;;;;;
2019/10/01 08:45:16;;;;;;;5.5;1.3;;;;;;;;;;;;;
2019/10/01 08:47:37;;;;;;;2.1;1;;;;;;;;;;;;;
2019/10/01 08:50:08;;;;;;;2.9;1;;;;;;;;;;;;;
2019/10/01 08:52:33;;;;;;;0.9;0.8;;;;;;;;;;;;;
2019/10/01 08:55:04;;;;;;;3.4;1;;;;;;;;;;;;;
2019/10/01 08:57:26;;;;;;;1;0.7;;;;;;;;;;;;;
2019/10/01 08:59:52;;;;;;;2;0.9;;;;;;;;;;;;;
2019/10/01 09:02:20;;;;;;;3.1;0.8;;;;;;;;;;;;;
2019/10/01 09:04:42;;;;;;;2;1.4;;;;;;;;;;;;;
2019/10/01 09:07:11;;;;;;;2.6;0.9;;;;;;;;;;;;;
2019/10/01 09:09:33;;;;;;;1.9;0.7;;;;;;;;;;;;;
2019/10/01 09:12:00;;;;;;;3.4;0.7;;;;;;;;;;;;;
2019/10/01 09:14:26;;;;;;;1.4;0.8;;;;;;;;;;;;;
2019/10/01 09:16:49;;;;;;;3.1;0.9;;;;;;;;;;;;;
2019/10/01 09:19:14;;;;;;;1.8;0.7;;;;;;;;;;;;;
2019/10/01 09:21:47;;;;;;;1;0.7;;;;;;;;;;;;;
2019/10/01 09:24:18;;;;;;;1.5;0.8;;;;;;;;;;;;;
2019/10/01 09:26:46;;;;;;;2.8;1.1;;;;;;;;;;;;;
2019/10/01 09:29:09;;;;;;;1.6;0.9;;;;;;;;;;;;;
2019/10/01 09:31:38;;;;;;;1.8;0.8;;;;;;;;;;;;;
2019/10/01 09:34:01;;;;;;;0.8;0.7;;;;;;;;;;;;;
2019/10/01 09:36:25;;;;;;;1.4;0.7;;;;;;;;;;;;;
2019/10/01 09:38:51;;;;;;;2.8;0.9;;;;;;;;;;;;;
2019/10/01 09:41:18;;;;;;;1;0.7;;;;;;;;;;;;;
2019/10/01 09:43:43;;;;;;;2.2;0.8;;;;;;;;;;;;;
2019/10/01 09:46:07;;;;;;;2.8;0.8;;;;;;;;;;;;;
2019/10/01 09:48:33;;;;;;;1.8;0.7;;;;;;;;;;;;;
2019/10/01 09:51:02;;;;;;;1;0.7;;;;;;;;;;;;;
2019/10/01 09:53:23;;;;;;;1.9;0.8;;;;;;;;;;;;;
2019/10/01 09:55:51;;;;;;;1.9;0.8;;;;;;;;;;;;;
2019/10/01 09:58:13;;;;;;;4.4;0.8;;;;;;;;;;;;;
2019/10/01 10:00:43;;;;;;;2.6;0.9;;;;;;;;;;;;;
2019/10/01 10:03:07;;;;;;;1.7;0.7;;;;;;;;;;;;;
2019/10/01 10:05:32;;;;;;;1.9;0.7;;;;;;;;;;;;;
2019/10/01 10:08:05;;;;;;;1.3;0.8;;;;;;;;;;;;;
2019/10/01 10:10:27;;;;;;;2.6;0.7;;;;;;;;;;;;;
2019/10/01 10:12:56;;;;;;;1.7;0.9;;;;;;;;;;;;;
2019/10/01 10:15:17;;;;;;;2.4;0.9;;;;;;;;;;;;;
2019/10/01 10:17:43;;;;;;;1.9;0.8;;;;;;;;;;;;;
2019/10/01 10:20:07;;;;;;;7.4;3.3;;;;;;;;;;;;;
2019/10/01 10:22:38;;;;;;;2.6;1.2;;;;;;;;;;;;;
2019/10/01 10:25:03;;;;;;;4.9;2.1;;;;;;;;;;;;;
2019/10/01 10:27:33;;;;;;;3;1.4;;;;;;;;;;;;;
2019/10/01 10:29:55;;;;;;;3;1;;;;;;;;;;;;;
2019/10/01 10:32:19;;;;;;;2.7;0.9;;;;;;;;;;;;;
2019/10/01 10:34:45;;;;;;;2.4;1.2;;;;;;;;;;;;;
2019/10/01 10:37:15;;;;;;;3.2;1.5;;;;;;;;;;;;;
2019/10/01 10:39:46;;;;;;;3.1;1.1;;;;;;;;;;;;;
2019/10/01 10:42:08;;;;;;;2.2;0.9;;;;;;;;;;;;;
2019/10/01 10:44:33;;;;;;;2.2;0.9;;;;;;;;;;;;;
2019/10/01 10:46:57;;;;;;;1.9;1.1;;;;;;;;;;;;;
2019/10/01 10:49:24;;;;;;;1.8;1.1;;;;;;;;;;;;;
2019/10/01 10:51:52;;;;;;;1.1;0.9;;;;;;;;;;;;;
2019/10/01 10:54:21;;;;;;;2.1;1;;;;;;;;;;;;;
2019/10/01 10:57:08;;;;;;;1.2;0.7;;;;;;;;;;;;;
2019/10/01 10:59:09;;;;;;;1.2;0.7;;;;;;;;;;;;;
2019/10/01 11:01:35;;;;;;;1.9;0.7;;;;;;;;;;;;;
2019/10/01 11:04:07;;;;;;;2;0.8;;;;;;;;;;;;;
2019/10/01 11:06:32;;;;;;;4.5;0.8;;;;;;;;;;;;;
2019/10/01 11:09:00;;;;;;;3.6;0.8;;;;;;;;;;;;;
2019/10/01 11:11:29;;;;;;;2.5;0.7;;;;;;;;;;;;;
2019/10/01 11:13:54;;;;;;;1.1;0.8;;;;;;;;;;;;;
2019/10/01 11:16:20;;;;;;;2.4;0.9;;;;;;;;;;;;;
2019/10/01 11:18:45;;;;;;;1.9;0.6;;;;;;;;;;;;;
2019/10/01 11:21:14;;;;;;;1.7;0.8;;;;;;;;;;;;;
2019/10/01 11:23:37;;;;;;;1.8;0.8;;;;;;;;;;;;;
2019/10/01 11:26:01;;;;;;;2.7;0.8;;;;;;;;;;;;;
2019/10/01 11:28:26;;;;;;;3.3;0.9;;;;;;;;;;;;;
2019/10/01 11:30:53;;;;;;;3.8;0.7;;;;;;;;;;;;;
2019/10/01 11:33:18;;;;;;;1.6;0.7;;;;;;;;;;;;;
2019/10/01 11:35:47;;;;;;;4.3;0.9;;;;;;;;;;;;;
2019/10/01 11:38:13;;;;;;;2.6;0.9;;;;;;;;;;;;;
2019/10/01 11:40:45;;;;;;;1.5;0.9;;;;;;;;;;;;;
2019/10/01 11:43:13;;;;;;;1.2;0.9;;;;;;;;;;;;;
2019/10/01 11:45:34;;;;;;;2.1;0.9;;;;;;;;;;;;;
2019/10/01 11:47:58;;;;;;;2.6;1.1;;;;;;;;;;;;;
2019/10/01 11:50:24;;;;;;;3.1;1;;;;;;;;;;;;;
2019/10/01 11:53:14;;;;;;;5;0.9;;;;;;;;;;;;;
2019/10/01 11:55:26;;;;;;;5.1;0.7;;;;;;;;;;;;;
2019/10/01 11:57:52;;;;;;;3.8;0.9;;;;;;;;;;;;;
2019/10/01 12:00:18;;;;;;;1;0.9;;;;;;;;;;;;;
2019/10/01 12:02:42;;;;;;;3.4;0.9;;;;;;;;;;;;;
2019/10/01 12:05:08;;;;;;;3.3;0.9;;;;;;;;;;;;;
2019/10/01 12:07:39;;;;;;;2.7;0.8;;;;;;;;;;;;;
2019/10/01 12:12:25;;;;;;;1.3;0.8;;;;;;;;;;;;;
2019/10/01 12:14:55;;;;;;;4.5;1;;;;;;;;;;;;;
2019/10/01 12:17:16;;;;;;;3.7;0.9;;;;;;;;;;;;;
2019/10/01 12:19:42;;;;;;;3.6;0.9;;;;;;;;;;;;;
2019/10/01 12:22:16;;;;;;;2.2;0.8;;;;;;;;;;;;;
2019/10/01 12:24:38;;;;;;;3.3;0.8;;;;;;;;;;;;;
2019/10/01 12:26:59;;;;;;;2.2;0.8;;;;;;;;;;;;;
2019/10/01 12:29:24;;;;;;;4.2;0.9;;;;;;;;;;;;;
2019/10/01 12:31:57;;;;;;;3.1;0.9;;;;;;;;;;;;;
2019/10/01 12:34:19;;;;;;;2.1;0.8;;;;;;;;;;;;;
2019/10/01 12:37:12;;;;;;;2.8;0.8;;;;;;;;;;;;;
2019/10/01 12:39:09;;;;;;;7.9;0.9;;;;;;;;;;;;;
2019/10/01 12:41:41;;;;;;;1.8;0.7;;;;;;;;;;;;;
2019/10/01 12:44:09;;;;;;;4.2;0.8;;;;;;;;;;;;;
2019/10/01 12:46:38;;;;;;;1.8;0.5;;;;;;;;;;;;;
2019/10/01 12:49:03;;;;;;;1.8;0.7;;;;;;;;;;;;;
2019/10/01 12:51:30;;;;;;;2.4;0.8;;;;;;;;;;;;;
2019/10/01 12:53:58;;;;;;;4.6;0.9;;;;;;;;;;;;;
2019/10/01 12:56:19;;;;;;;0.8;0.5;;;;;;;;;;;;;
2019/10/01 12:58:44;;;;;;;2.5;0.7;;;;;;;;;;;;;
2019/10/01 13:01:18;;;;;;;1;0.6;;;;;;;;;;;;;
2019/10/01 13:03:42;;;;;;;0.6;0.5;;;;;;;;;;;;;
2019/10/01 13:06:09;;;;;;;0.8;0.5;;;;;;;;;;;;;
2019/10/01 13:08:33;;;;;;;3.2;0.8;;;;;;;;;;;;;
2019/10/01 13:11:09;;;;;;;1.6;0.7;;;;;;;;;;;;;
2019/10/01 13:13:22;;;;;;;3.4;0.7;;;;;;;;;;;;;
2019/10/01 13:15:51;;;;;;;2.5;0.6;;;;;;;;;;;;;
2019/10/01 13:18:20;;;;;;;0.6;0.5;;;;;;;;;;;;;
2019/10/01 13:20:46;;;;;;;3.1;0.7;;;;;;;;;;;;;
2019/10/01 13:23:08;;;;;;;1.8;0.6;;;;;;;;;;;;;
2019/10/01 13:25:34;;;;;;;0.8;0.5;;;;;;;;;;;;;
2019/10/01 13:28:23;;;;;;;2;0.6;;;;;;;;;;;;;
2019/10/01 13:30:34;;;;;;;1.2;0.7;;;;;;;;;;;;;
2019/10/01 13:33:02;;;;;;;2.2;0.7;;;;;;;;;;;;;
2019/10/01 13:35:31;;;;;;;4.9;0.8;;;;;;;;;;;;;
2019/10/01 13:38:14;;;;;;;0.8;0.5;;;;;;;;;;;;;
2019/10/01 13:40:37;;;;;;;1.6;0.6;;;;;;;;;;;;;
2019/10/01 13:42:59;;;;;;;2.1;0.6;;;;;;;;;;;;;
2019/10/01 13:45:32;;;;;;;4.4;0.7;;;;;;;;;;;;;
2019/10/01 13:47:54;;;;;;;1.9;0.6;;;;;;;;;;;;;
2019/10/01 13:50:19;;;;;;;0.8;0.4;;;;;;;;;;;;;
2019/10/01 13:52:50;;;;;;;1.4;0.5;;;;;;;;;;;;;
2019/10/01 13:55:13;;;;;;;2;0.5;;;;;;;;;;;;;
2019/10/01 13:57:36;;;;;;;1.5;0.6;;;;;;;;;;;;;
2019/10/01 14:00:03;;;;;;;0.7;0.4;;;;;;;;;;;;;
2019/10/01 14:02:33;;;;;;;1.1;0.4;;;;;;;;;;;;;
2019/10/01 14:04:56;;;;;;;2.5;0.5;;;;;;;;;;;;;
2019/10/01 14:07:23;;;;;;;0.9;0.5;;;;;;;;;;;;;
2019/10/01 14:09:50;;;;;;;1.4;0.6;;;;;;;;;;;;;
2019/10/01 14:12:16;;;;;;;1;0.5;;;;;;;;;;;;;
2019/10/01 14:14:42;;;;;;;3.6;0.6;;;;;;;;;;;;;
2019/10/01 14:17:10;;;;;;;2.3;0.6;;;;;;;;;;;;;
2019/10/01 14:19:33;;;;;;;3.8;0.6;;;;;;;;;;;;;
2019/10/01 14:22:00;;;;;;;1.2;0.7;;;;;;;;;;;;;
2019/10/01 14:24:22;;;;;;;3.5;1.1;;;;;;;;;;;;;
2019/10/01 14:26:48;;;;;;;2.2;0.6;;;;;;;;;;;;;
2019/10/01 14:29:15;;;;;;;1.5;0.5;;;;;;;;;;;;;
2019/10/01 14:31:41;;;;;;;2.7;0.7;;;;;;;;;;;;;
2019/10/01 14:34:03;;;;;;;3.3;0.7;;;;;;;;;;;;;
2019/10/01 14:36:29;;;;;;;1.7;0.7;;;;;;;;;;;;;
2019/10/01 14:38:55;;;;;;;2.7;0.8;;;;;;;;;;;;;
2019/10/01 14:41:23;;;;;;;2;0.6;;;;;;;;;;;;;
2019/10/01 14:43:51;;;;;;;1;0.7;;;;;;;;;;;;;
2019/10/01 14:46:16;;;;;;;2;0.6;;;;;;;;;;;;;
2019/10/01 14:48:42;;;;;;;1.2;0.6;;;;;;;;;;;;;
2019/10/01 14:51:10;;;;;;;3;0.7;;;;;;;;;;;;;
2019/10/01 14:54:14;;;;;;;2.9;0.6;;;;;;;;;;;;;
2019/10/01 14:56:31;;;;;;;2.8;0.6;;;;;;;;;;;;;
2019/10/01 14:58:58;;;;;;;1.8;0.7;;;;;;;;;;;;;
2019/10/01 15:01:26;;;;;;;2.9;0.7;;;;;;;;;;;;;
2019/10/01 15:03:49;;;;;;;2;0.6;;;;;;;;;;;;;
2019/10/01 15:06:13;;;;;;;2;0.7;;;;;;;;;;;;;
2019/10/01 15:08:41;;;;;;;1.8;0.7;;;;;;;;;;;;;
2019/10/01 15:11:08;;;;;;;2.4;0.7;;;;;;;;;;;;;
2019/10/01 15:13:37;;;;;;;1.8;0.6;;;;;;;;;;;;;
2019/10/01 15:15:56;;;;;;;1.2;0.6;;;;;;;;;;;;;
2019/10/01 15:18:22;;;;;;;2.6;0.9;;;;;;;;;;;;;
2019/10/01 15:20:54;;;;;;;1.8;0.7;;;;;;;;;;;;;
2019/10/01 15:23:14;;;;;;;3.2;0.6;;;;;;;;;;;;;
2019/10/01 15:25:39;;;;;;;3.4;0.7;;;;;;;;;;;;;
2019/10/01 15:28:05;;;;;;;1;0.7;;;;;;;;;;;;;
2019/10/01 15:30:36;;;;;;;2.5;0.9;;;;;;;;;;;;;
2019/10/01 15:33:00;;;;;;;3.4;1.2;;;;;;;;;;;;;
2019/10/01 15:35:25;;;;;;;11.7;1.7;;;;;;;;;;;;;
2019/10/01 15:38:01;;;;;;;2;0.8;;;;;;;;;;;;;
2019/10/01 15:40:19;;;;;;;1.4;0.7;;;;;;;;;;;;;
2019/10/01 15:42:43;;;;;;;3;0.8;;;;;;;;;;;;;
2019/10/01 15:45:15;;;;;;;2.6;0.7;;;;;;;;;;;;;
2019/10/01 15:47:40;;;;;;;2.6;0.7;;;;;;;;;;;;;
2019/10/01 15:50:04;;;;;;;3.1;0.9;;;;;;;;;;;;;
2019/10/01 15:52:30;;;;;;;7.7;1;;;;;;;;;;;;;
2019/10/01 15:54:58;;;;;;;3;0.8;;;;;;;;;;;;;
2019/10/01 15:57:25;;;;;;;3.6;1;;;;;;;;;;;;;
2019/10/01 15:59:53;;;;;;;7.3;1.2;;;;;;;;;;;;;
2019/10/01 16:02:19;;;;;;;24.4;7.1;;;;;;;;;;;;;
2019/10/01 16:04:43;;;;;;;32.5;9.5;;;;;;;;;;;;;
2019/10/01 16:07:07;;;;;;;7.7;3.5;;;;;;;;;;;;;
2019/10/01 16:09:37;;;;;;;31.1;7.4;;;;;;;;;;;;;
2019/10/01 16:12:01;;;;;;;37.7;11.1;;;;;;;;;;;;;
2019/10/01 16:14:25;;;;;;;3.3;1.2;;;;;;;;;;;;;
2019/10/01 16:16:55;;;;;;;9.2;3;;;;;;;;;;;;;
2019/10/01 16:19:22;;;;;;;2.5;1.1;;;;;;;;;;;;;
2019/10/01 16:21:46;;;;;;;2.1;1;;;;;;;;;;;;;
2019/10/01 16:24:14;;;;;;;3.9;1;;;;;;;;;;;;;
2019/10/01 16:26:36;;;;;;;3;1.1;;;;;;;;;;;;;
2019/10/01 16:29:03;;;;;;;6.9;1.5;;;;;;;;;;;;;
2019/10/01 16:31:28;;;;;;;4.9;1.8;;;;;;;;;;;;;
2019/10/01 16:33:53;;;;;;;3;1.1;;;;;;;;;;;;;
2019/10/01 16:36:24;;;;;;;4.9;1.4;;;;;;;;;;;;;
2019/10/01 16:38:53;;;;;;;4.1;1.1;;;;;;;;;;;;;
2019/10/01 16:41:17;;;;;;;2.4;1.1;;;;;;;;;;;;;
2019/10/01 16:43:46;;;;;;;4.8;1.2;;;;;;;;;;;;;
2019/10/01 16:46:19;;;;;;;33.8;8.4;;;;;;;;;;;;;
2019/10/01 16:48:40;;;;;;;37.3;10.2;;;;;;;;;;;;;
2019/10/01 16:51:08;;;;;;;13.1;3.7;;;;;;;;;;;;;
2019/10/01 16:53:37;;;;;;;9;2.9;;;;;;;;;;;;;
2019/10/01 16:56:03;;;;;;;9.5;2.9;;;;;;;;;;;;;
2019/10/01 16:58:30;;;;;;;6;2.2;;;;;;;;;;;;;
2019/10/01 17:03:21;;;;;;;4.9;1.6;;;;;;;;;;;;;
2019/10/01 17:05:49;;;;;;;6;1.8;;;;;;;;;;;;;
2019/10/01 17:08:21;;;;;;;4.7;2.1;;;;;;;;;;;;;
2019/10/01 17:10:46;;;;;;;6.4;1.9;;;;;;;;;;;;;
2019/10/01 17:13:10;;;;;;;5.1;1.9;;;;;;;;;;;;;
2019/10/01 17:15:36;;;;;;;6.1;1.8;;;;;;;;;;;;;
2019/10/01 17:18:02;;;;;;;6;1.6;;;;;;;;;;;;;
2019/10/01 17:20:31;;;;;;;4;1.8;;;;;;;;;;;;;
2019/10/01 17:22:53;;;;;;;4.4;1.6;;;;;;;;;;;;;
2019/10/01 17:25:23;;;;;;;4.3;1.7;;;;;;;;;;;;;
2019/10/01 17:27:49;;;;;;;8.1;2.3;;;;;;;;;;;;;
2019/10/01 17:32:40;;;;;;;2.8;1.3;;;;;;;;;;;;;
2019/10/01 17:35:08;;;;;;;3.3;1.7;;;;;;;;;;;;;
2019/10/01 17:37:39;;;;;;;8;2;;;;;;;;;;;;;
2019/10/01 17:39:59;;;;;;;6.8;1.8;;;;;;;;;;;;;
2019/10/01 17:42:26;;;;;;;3.1;1.4;;;;;;;;;;;;;
2019/10/01 17:44:51;;;;;;;4.2;1.7;;;;;;;;;;;;;
2019/10/01 17:47:18;;;;;;;3.5;1.5;;;;;;;;;;;;;
2019/10/01 17:49:43;;;;;;;6;1.6;;;;;;;;;;;;;
2019/10/01 17:52:05;;;;;;;4.3;1.5;;;;;;;;;;;;;
2019/10/01 17:54:30;;;;;;;7.2;1.6;;;;;;;;;;;;;
2019/10/01 17:56:55;;;;;;;10.5;1.9;;;;;;;;;;;;;
2019/10/01 17:59:21;;;;;;;5.4;1.7;;;;;;;;;;;;;
2019/10/01 18:01:48;;;;;;;6.6;1.8;;;;;;;;;;;;;
2019/10/01 18:04:16;;;;;;;6.8;3.9;;;;;;;;;;;;;
2019/10/01 18:06:39;;;;;;;8.4;3.6;;;;;;;;;;;;;
2019/10/01 18:09:08;;;;;;;5.6;1.8;;;;;;;;;;;;;
2019/10/01 18:11:33;;;;;;;3.6;1.8;;;;;;;;;;;;;
2019/10/01 18:13:57;;;;;;;4.6;1.9;;;;;;;;;;;;;
2019/10/01 18:16:28;;;;;;;5.3;1.7;;;;;;;;;;;;;
2019/10/01 18:21:19;;;;;;;7.7;1.6;;;;;;;;;;;;;
2019/10/01 18:23:50;;;;;;;4.7;1.8;;;;;;;;;;;;;
2019/10/01 18:26:11;;;;;;;4.4;1.8;;;;;;;;;;;;;
2019/10/01 18:28:35;;;;;;;4.4;1.7;;;;;;;;;;;;;
2019/10/01 18:31:00;;;;;;;4.9;2.3;;;;;;;;;;;;;
2019/10/01 18:33:24;;;;;;;4.6;2;;;;;;;;;;;;;
2019/10/01 18:35:50;;;;;;;4.8;2.4;;;;;;;;;;;;;